Lavan Airport

Airport
ICAO code: 
OIBV
IATA Code: 
LVP
Summary
ICAO Region: 
MID
Territory: 
Location: 
Lavan, Hormozgan Province
Serving: 
Lavan Island
Elevation: 
76 ft
Coordinates: 
Aerial View: 
26° 48' 38.999" N, 53° 21' 10.994" E
Metar
Observation
OIBV 260800Z 13008KT 3500 BR NSC 34/30 Q0996
Station
LAVAN ISLAND
Date/Time
2022-06-26 08:00:00
Wind direction
130°
Wind speed
08 kts
Lowest cloud amount
nil significant cloud
Temperature
34°C
Dew point
30°C
Humidity
79%
QNH
996 hPa
Weather condition
n/a

Airport located on Lavan Island in the Persian Gulf.

Climatology

Warm Desert climate (Köppen climate classification BWh).

Runways

Designator Length Width Surface Rops
11/29 2077 45 ASP No/No
Airport map: 
Aerial View: 

SKYbrary Partners:

Safety knowledge contributed by: